createdAt,value
2023-01-17T00:01:18.461Z,97460.94
2023-01-17T00:04:03.336Z,97460.03
2023-01-17T00:06:48.422Z,97452.34
2023-01-17T00:09:33.748Z,97441.19
2023-01-17T00:12:02.136Z,97440.31
2023-01-17T00:14:28.770Z,97431.69
2023-01-17T00:16:55.333Z,97424.13
2023-01-17T00:19:40.433Z,97418.91
2023-01-17T00:22:30.013Z,97399.03
2023-01-17T00:25:14.699Z,97386.22
2023-01-17T00:27:41.455Z,97369.91
2023-01-17T00:30:08.735Z,97356.16
2023-01-17T00:32:35.158Z,97333.72
2023-01-17T00:35:01.578Z,97330.28
2023-01-17T00:37:28.069Z,97319.91
2023-01-17T00:39:54.549Z,97302.69
2023-01-17T00:42:21.008Z,97302.81
2023-01-17T00:45:05.842Z,97293.25
2023-01-17T00:47:52.675Z,97283.72
2023-01-17T00:50:37.924Z,97270.91
2023-01-17T00:53:23.760Z,97275.25
2023-01-17T00:56:09.045Z,97283.97
2023-01-17T00:58:54.017Z,97276.94
2023-01-17T01:01:39.218Z,97284.03
2023-01-17T01:04:24.553Z,97267.53
2023-01-17T01:07:09.638Z,97256.41
2023-01-17T01:09:54.466Z,97253.03
2023-01-17T01:12:39.337Z,97275.41
2023-01-17T01:15:25.226Z,97285.94
2023-01-17T01:18:10.151Z,97257.38
2023-01-17T01:20:54.991Z,97252.19
2023-01-17T01:23:39.835Z,97245.28
2023-01-17T01:26:24.666Z,97232.47
2023-01-17T01:29:09.671Z,97229.03
2023-01-17T01:31:54.758Z,97225.66
2023-01-17T01:34:21.368Z,97236.00
2023-01-17T01:36:47.916Z,97232.56
2023-01-17T01:39:14.553Z,97245.47
2023-01-17T01:41:41.513Z,97248.94
2023-01-17T01:45:03.203Z,97257.59
2023-01-17T01:47:38.560Z,97255.81
2023-01-17T01:50:08.375Z,97260.19
2023-01-17T01:52:39.998Z,97261.06
2023-01-17T01:55:14.090Z,97269.81
2023-01-17T01:57:44.194Z,97262.91
2023-01-17T02:00:24.978Z,97255.91
2023-01-17T02:02:53.347Z,97253.31
2023-01-17T02:05:22.456Z,97257.81
2023-01-17T02:08:10.633Z,97250.84
2023-01-17T02:10:39.939Z,97237.84
2023-01-17T02:13:07.690Z,97220.72
2023-01-17T02:15:48.392Z,97212.13
2023-01-17T02:18:30.056Z,97206.09
2023-01-17T02:21:11.804Z,97204.41
2023-01-17T02:24:02.943Z,97220.84
2023-01-17T02:26:45.622Z,97216.44
2023-01-17T02:29:49.471Z,97219.94
2023-01-17T02:32:34.050Z,97195.00
2023-01-17T02:35:06.818Z,97178.69
2023-01-17T02:38:03.966Z,97170.06
2023-01-17T02:40:43.136Z,97197.66
2023-01-17T02:43:14.508Z,97211.50
2023-01-17T02:45:41.577Z,97239.78
2023-01-17T02:48:12.311Z,97256.13
2023-01-17T02:50:56.801Z,97250.13
2023-01-17T02:53:35.413Z,97226.03
2023-01-17T02:56:16.879Z,97207.94
2023-01-17T02:58:49.587Z,97204.53
2023-01-17T03:02:05.007Z,97179.56
2023-01-17T03:04:42.002Z,97198.56
2023-01-17T03:07:16.424Z,97182.25
2023-01-17T03:09:45.874Z,97167.53
2023-01-17T03:12:13.187Z,97152.94
2023-01-17T03:14:39.832Z,97155.53
2023-01-17T03:17:06.551Z,97162.44
2023-01-17T03:19:33.647Z,97164.22
2023-01-17T03:22:00.137Z,97166.75
2023-01-17T03:24:26.665Z,97161.63
2023-01-17T03:26:53.259Z,97148.66
2023-01-17T03:29:19.768Z,97135.00
2023-01-17T03:31:46.691Z,97138.44
2023-01-17T03:34:13.189Z,97159.13
2023-01-17T03:36:39.673Z,97166.75
2023-01-17T03:39:06.373Z,97169.41
2023-01-17T03:41:32.928Z,97182.25
2023-01-17T03:43:59.569Z,97171.97
2023-01-17T03:46:28.642Z,97148.72
2023-01-17T03:48:55.222Z,97134.19
2023-01-17T03:51:22.270Z,97134.16
2023-01-17T03:53:50.020Z,97127.16
2023-01-17T03:56:16.577Z,97137.50
2023-01-17T03:58:43.181Z,97135.78
2023-01-17T04:01:09.893Z,97132.47
2023-01-17T04:03:36.479Z,97126.44
2023-01-17T04:06:03.060Z,97123.09
2023-01-17T04:08:30.570Z,97111.78
2023-01-17T04:10:57.184Z,97097.00
2023-01-17T04:13:24.325Z,97080.69
2023-01-17T04:15:51.572Z,97079.88
2023-01-17T04:18:20.490Z,97055.63
2023-01-17T04:20:47.599Z,97044.31
2023-01-17T04:23:14.208Z,97025.31
2023-01-17T04:25:40.731Z,96995.88
2023-01-17T04:28:07.368Z,96962.22
2023-01-17T04:30:34.189Z,96979.28
2023-01-17T04:33:01.061Z,96987.81
2023-01-17T04:35:30.217Z,96980.84
2023-01-17T04:37:56.954Z,96953.28
2023-01-17T04:40:23.845Z,96946.22
2023-01-17T04:42:51.367Z,96951.41
2023-01-17T04:45:17.928Z,96957.34
2023-01-17T04:47:44.520Z,96971.94
2023-01-17T04:50:11.547Z,96977.09
2023-01-17T04:52:38.139Z,96989.97
2023-01-17T04:55:05.809Z,96996.81
2023-01-17T04:57:32.352Z,96989.03
2023-01-17T04:59:59.011Z,96973.38
2023-01-17T05:02:25.638Z,96964.75
2023-01-17T05:04:52.848Z,96977.53
2023-01-17T05:07:19.354Z,96980.97
2023-01-17T05:09:45.864Z,96979.22
2023-01-17T05:12:12.468Z,97003.34
2023-01-17T05:14:38.937Z,97007.59
2023-01-17T05:17:05.449Z,97023.06
2023-01-17T05:19:32.041Z,97018.72
2023-01-17T05:22:04.018Z,97030.78
2023-01-17T05:24:31.462Z,97018.72
2023-01-17T05:27:03.182Z,97015.28
2023-01-17T05:29:30.833Z,97004.94
2023-01-17T05:31:58.207Z,96993.84
2023-01-17T05:34:25.102Z,96999.78
2023-01-17T05:36:51.988Z,96988.53
2023-01-17T05:39:18.824Z,96992.00
2023-01-17T05:41:45.403Z,97001.47
2023-01-17T05:44:11.976Z,96991.69
2023-01-17T05:46:38.632Z,96987.31
2023-01-17T05:49:05.548Z,96984.72
2023-01-17T05:51:32.492Z,96983.72
2023-01-17T05:53:59.450Z,96975.00
2023-01-17T05:56:26.042Z,96984.97
2023-01-17T05:58:52.537Z,96977.94
2023-01-17T06:01:19.585Z,96986.63
2023-01-17T06:03:46.208Z,96996.13
2023-01-17T06:06:12.947Z,97007.53
2023-01-17T06:08:39.475Z,97045.56
2023-01-17T06:11:06.191Z,97055.06
2023-01-17T06:13:32.908Z,97014.50
2023-01-17T06:16:03.934Z,97011.91
2023-01-17T06:18:31.976Z,97011.06
2023-01-17T06:20:58.672Z,97049.00
2023-01-17T06:23:25.548Z,97081.81
2023-01-17T06:25:52.628Z,97055.97
2023-01-17T06:28:21.824Z,97055.06
2023-01-17T06:30:48.566Z,97054.19
2023-01-17T06:33:15.604Z,97070.63
2023-01-17T06:35:49.697Z,97086.97
2023-01-17T06:38:16.664Z,97069.72
2023-01-17T06:40:43.345Z,97061.09
2023-01-17T06:43:09.990Z,97021.44
2023-01-17T06:45:36.806Z,97034.38
2023-01-17T06:48:05.256Z,97088.66
2023-01-17T06:50:33.219Z,97077.44
2023-01-17T06:53:02.720Z,97051.53
2023-01-17T06:55:30.357Z,97112.59
2023-01-17T06:57:59.470Z,97105.53
2023-01-17T07:00:27.547Z,97068.38
2023-01-17T07:02:54.908Z,97114.97
2023-01-17T07:05:21.841Z,97117.53
2023-01-17T07:07:48.673Z,97126.19
2023-01-17T07:10:15.755Z,97109.81
2023-01-17T07:12:42.790Z,97114.97
2023-01-17T07:15:10.194Z,97119.34
2023-01-17T07:17:36.795Z,97109.81
2023-01-17T07:20:04.107Z,97133.88
2023-01-17T07:22:30.723Z,97125.31
2023-01-17T07:24:58.620Z,97146.84
2023-01-17T07:27:27.841Z,97163.22
2023-01-17T07:29:54.544Z,97168.31
2023-01-17T07:32:21.106Z,97181.13
2023-01-17T07:34:48.021Z,97185.31
2023-01-17T07:37:15.439Z,97196.63
2023-01-17T07:39:42.406Z,97210.47
2023-01-17T07:42:09.300Z,97212.22
2023-01-17T07:44:36.235Z,97223.63
2023-01-17T07:47:04.480Z,97224.50
2023-01-17T07:49:30.948Z,97233.13
2023-01-17T07:51:57.462Z,97224.56
2023-01-17T07:54:24.045Z,97230.78
2023-01-17T07:56:50.594Z,97240.41
2023-01-17T07:59:18.111Z,97242.28
2023-01-17T08:01:44.823Z,97258.66
2023-01-17T08:04:11.662Z,97255.25
2023-01-17T08:06:42.186Z,97257.03
2023-01-17T08:09:08.743Z,97257.91
2023-01-17T08:11:35.673Z,97255.31
2023-01-17T08:14:02.503Z,97262.28
2023-01-17T08:16:29.753Z,97264.88
2023-01-17T08:18:56.900Z,97279.59
2023-01-17T08:21:24.454Z,97289.97
2023-01-17T08:23:52.548Z,97287.44
2023-01-17T08:26:23.944Z,97299.41
2023-01-17T08:29:00.742Z,97299.41
2023-01-17T08:31:28.682Z,97304.69
2023-01-17T08:33:56.904Z,97306.50
2023-01-17T08:36:25.717Z,97311.59
2023-01-17T08:38:52.903Z,97312.53
2023-01-17T08:41:21.097Z,97316.03
2023-01-17T08:43:48.982Z,97329.84
2023-01-17T08:46:15.821Z,97326.47
2023-01-17T08:48:42.405Z,97335.19
2023-01-17T08:51:09.836Z,97336.13
2023-01-17T08:53:36.346Z,97343.03
2023-01-17T08:56:05.266Z,97375.75
2023-01-17T08:58:32.860Z,97379.25
2023-01-17T09:01:03.937Z,97384.59
2023-01-17T09:03:32.015Z,97393.97
2023-01-17T09:06:16.587Z,97390.66
2023-01-17T09:08:47.050Z,97393.25
2023-01-17T09:11:17.863Z,97390.66
2023-01-17T09:13:44.802Z,97382.94
2023-01-17T09:16:11.477Z,97377.84
2023-01-17T09:18:38.105Z,97373.56
2023-01-17T09:21:16.851Z,97365.00
2023-01-17T09:23:44.364Z,97345.19
2023-01-17T09:26:24.525Z,97330.47
2023-01-17T09:28:52.057Z,97339.16
2023-01-17T09:31:21.034Z,97350.28
2023-01-17T09:33:48.528Z,97364.09
2023-01-17T09:36:15.254Z,97361.56
2023-01-17T09:38:42.569Z,97372.78
2023-01-17T09:41:36.865Z,97380.44
2023-01-17T09:44:38.151Z,97382.94
2023-01-17T09:47:12.984Z,97387.34
2023-01-17T09:49:43.193Z,97380.53
2023-01-17T09:52:16.506Z,97388.19
2023-01-17T09:54:46.212Z,97393.31
2023-01-17T09:57:24.887Z,97403.59
2023-01-17T10:00:13.354Z,97424.28
2023-01-17T10:03:17.082Z,97428.63
2023-01-17T10:05:55.629Z,97414.81
2023-01-17T10:08:42.519Z,97430.25
2023-01-17T10:11:30.671Z,97437.13
2023-01-17T10:14:27.965Z,97450.06
2023-01-17T10:17:16.344Z,97441.47
2023-01-17T10:20:07.825Z,97453.56
2023-01-17T10:23:03.859Z,97444.19
2023-01-17T10:25:50.403Z,97441.59
2023-01-17T10:28:19.562Z,97427.84
2023-01-17T10:30:49.917Z,97419.22
2023-01-17T10:33:28.891Z,97414.91
2023-01-17T10:36:09.055Z,97410.69
2023-01-17T10:38:38.606Z,97412.38
2023-01-17T10:41:10.891Z,97407.09
2023-01-17T10:43:40.435Z,97407.97
2023-01-17T10:46:16.748Z,97420.91
2023-01-17T10:48:46.771Z,97440.00
2023-01-17T10:51:31.866Z,97451.28
2023-01-17T10:54:04.605Z,97444.38
2023-01-17T10:56:32.611Z,97430.63
2023-01-17T10:59:27.579Z,97430.75
2023-01-17T11:01:53.997Z,97419.50
2023-01-17T11:04:32.953Z,97434.13
2023-01-17T11:07:13.199Z,97429.75
2023-01-17T11:09:47.863Z,97435.81
2023-01-17T11:12:32.428Z,97434.03
2023-01-17T11:15:01.845Z,97437.41
2023-01-17T11:17:29.643Z,97456.44
2023-01-17T11:20:22.808Z,97446.28
2023-01-17T11:23:04.714Z,97430.75
2023-01-17T11:25:36.066Z,97425.63
2023-01-17T11:28:30.722Z,97429.16
2023-01-17T11:30:58.656Z,97443.00
2023-01-17T11:33:45.692Z,97450.75
2023-01-17T11:36:27.396Z,97459.47
2023-01-17T11:38:56.677Z,97458.75
2023-01-17T11:41:25.192Z,97464.91
2023-01-17T11:43:55.132Z,97438.19
2023-01-17T11:46:21.896Z,97417.44
2023-01-17T11:48:56.157Z,97419.09
2023-01-17T11:51:33.629Z,97424.25
2023-01-17T11:54:26.040Z,97442.41
2023-01-17T11:57:01.084Z,97436.41
2023-01-17T11:59:34.695Z,97440.69
2023-01-17T12:02:31.973Z,97430.34
2023-01-17T12:05:09.500Z,97433.75
2023-01-17T12:07:54.140Z,97432.03
2023-01-17T12:10:43.448Z,97428.53
2023-01-17T12:13:35.075Z,97427.75
2023-01-17T12:16:31.275Z,97425.16
2023-01-17T12:19:53.615Z,97422.53
2023-01-17T12:22:26.938Z,97413.06
2023-01-17T12:25:26.758Z,97406.22
2023-01-17T12:28:00.447Z,97406.25
2023-01-17T12:30:46.940Z,97417.44
2023-01-17T12:33:21.977Z,97406.16
2023-01-17T12:35:55.219Z,97406.22
2023-01-17T12:38:36.043Z,97392.53
2023-01-17T12:41:10.254Z,97389.91
2023-01-17T12:43:40.865Z,97395.97
2023-01-17T12:46:24.550Z,97383.03
2023-01-17T12:48:56.099Z,97366.72
2023-01-17T12:51:30.363Z,97379.66
2023-01-17T12:54:15.752Z,97375.38
2023-01-17T12:56:51.460Z,97391.06
2023-01-17T12:59:42.783Z,97380.72
2023-01-17T13:02:47.516Z,97380.72
2023-01-17T13:05:23.652Z,97383.28
2023-01-17T13:08:03.025Z,97382.50
2023-01-17T13:10:43.424Z,97377.50
2023-01-17T13:13:25.679Z,97385.19
2023-01-17T13:16:02.441Z,97356.75
2023-01-17T13:18:29.990Z,97367.88
2023-01-17T13:21:06.085Z,97342.84
2023-01-17T13:23:54.199Z,97355.75
2023-01-17T13:26:55.109Z,97353.91
2023-01-17T13:29:46.358Z,97338.34
2023-01-17T13:32:27.805Z,97340.88
2023-01-17T13:35:03.497Z,97338.16
2023-01-17T13:37:38.470Z,97351.09
2023-01-17T13:40:18.534Z,97344.31
2023-01-17T13:42:57.541Z,97355.59
2023-01-17T13:45:28.543Z,97358.13
2023-01-17T13:48:14.623Z,97358.13
2023-01-17T13:50:41.121Z,97362.44
2023-01-17T13:53:35.665Z,97344.31
2023-01-17T13:56:12.024Z,97357.25
2023-01-17T13:58:51.829Z,97352.06
2023-01-17T14:01:24.197Z,97340.00
2023-01-17T14:03:54.069Z,97339.22
2023-01-17T14:06:33.169Z,97326.34
2023-01-17T14:09:02.763Z,97341.88
2023-01-17T14:11:33.776Z,97322.03
2023-01-17T14:14:35.049Z,97334.00
2023-01-17T14:17:23.115Z,97341.81
2023-01-17T14:19:56.137Z,97329.78
2023-01-17T14:22:29.157Z,97347.88
2023-01-17T14:25:01.360Z,97337.59
2023-01-17T14:27:30.622Z,97347.94
2023-01-17T14:29:59.178Z,97341.13
2023-01-17T14:32:35.571Z,97354.16
2023-01-17T14:35:04.192Z,97362.84
2023-01-17T14:37:33.370Z,97367.09
2023-01-17T14:40:00.723Z,97377.50
2023-01-17T14:42:30.574Z,97371.53
2023-01-17T14:45:08.946Z,97367.25
2023-01-17T14:47:41.567Z,97369.97
2023-01-17T14:50:21.560Z,97375.94
2023-01-17T14:52:48.791Z,97373.31
2023-01-17T14:55:20.463Z,97387.09
2023-01-17T14:57:57.546Z,97390.59
2023-01-17T15:00:25.430Z,97394.06
2023-01-17T15:02:53.770Z,97404.41
2023-01-17T15:05:23.512Z,97390.66
2023-01-17T15:07:53.696Z,97390.72
2023-01-17T15:10:31.994Z,97410.59
2023-01-17T15:13:07.679Z,97399.38
2023-01-17T15:15:38.988Z,97393.47
2023-01-17T15:18:18.127Z,97404.50
2023-01-17T15:21:07.559Z,97408.88
2023-01-17T15:23:40.611Z,97412.38
2023-01-17T15:26:11.293Z,97408.81
2023-01-17T15:28:38.080Z,97408.81
2023-01-17T15:31:08.860Z,97415.44
2023-01-17T15:33:38.383Z,97418.97
2023-01-17T15:36:27.442Z,97423.19
2023-01-17T15:39:00.411Z,97414.66
2023-01-17T15:41:39.637Z,97428.34
2023-01-17T15:44:08.240Z,97436.16
2023-01-17T15:46:45.605Z,97456.78
2023-01-17T15:49:24.929Z,97450.81
2023-01-17T15:52:08.784Z,97448.16
2023-01-17T15:54:55.531Z,97455.97
2023-01-17T15:57:38.923Z,97447.25
2023-01-17T16:00:07.030Z,97443.00
2023-01-17T16:02:36.353Z,97441.28
2023-01-17T16:05:23.514Z,97447.25
2023-01-17T16:08:02.441Z,97440.34
2023-01-17T16:10:31.881Z,97440.28
2023-01-17T16:12:59.470Z,97436.03
2023-01-17T16:15:27.918Z,97432.53
2023-01-17T16:18:08.216Z,97432.44
2023-01-17T16:20:42.718Z,97434.22
2023-01-17T16:23:12.594Z,97443.63
2023-01-17T16:25:39.395Z,97440.97
2023-01-17T16:28:06.519Z,97448.81
2023-01-17T16:30:33.819Z,97441.91
2023-01-17T16:33:01.314Z,97446.22
2023-01-17T16:35:30.301Z,97460.75
2023-01-17T16:38:02.581Z,97454.72
2023-01-17T16:40:32.263Z,97464.03
2023-01-17T16:43:00.362Z,97463.97
2023-01-17T16:45:27.424Z,97467.31
2023-01-17T16:47:54.757Z,97466.63
2023-01-17T16:50:24.295Z,97483.00
2023-01-17T16:52:54.740Z,97476.97
2023-01-17T16:55:23.717Z,97477.88
2023-01-17T16:57:51.315Z,97483.06
2023-01-17T17:00:18.461Z,97482.25
2023-01-17T17:02:45.037Z,97481.84
2023-01-17T17:05:11.894Z,97471.28
2023-01-17T17:07:46.277Z,97479.03
2023-01-17T17:10:14.512Z,97485.81
2023-01-17T17:12:41.478Z,97497.22
2023-01-17T17:15:08.815Z,97493.13
2023-01-17T17:17:36.890Z,97498.41
2023-01-17T17:20:04.919Z,97494.19
2023-01-17T17:22:31.711Z,97502.84
2023-01-17T17:24:58.422Z,97499.38
2023-01-17T17:27:27.655Z,97504.53
2023-01-17T17:29:54.782Z,97505.13
2023-01-17T17:32:21.682Z,97506.69
2023-01-17T17:34:50.569Z,97500.31
2023-01-17T17:37:17.341Z,97491.25
2023-01-17T17:39:44.594Z,97500.97
2023-01-17T17:42:11.620Z,97495.06
2023-01-17T17:44:38.232Z,97502.03
2023-01-17T17:47:05.103Z,97515.66
2023-01-17T17:49:31.677Z,97508.34
2023-01-17T17:52:06.302Z,97505.38
2023-01-17T17:54:33.151Z,97508.03
2023-01-17T17:56:59.903Z,97501.22
2023-01-17T17:59:26.568Z,97508.88
2023-01-17T18:01:53.263Z,97509.03
2023-01-17T18:04:20.144Z,97516.81
2023-01-17T18:06:46.623Z,97521.59
2023-01-17T18:09:13.772Z,97533.66
2023-01-17T18:11:42.108Z,97521.41
2023-01-17T18:14:10.995Z,97532.53
2023-01-17T18:16:41.813Z,97526.28
2023-01-17T18:19:20.690Z,97517.59
2023-01-17T18:21:48.722Z,97531.16
2023-01-17T18:24:16.812Z,97530.19
2023-01-17T18:26:57.584Z,97524.00
2023-01-17T18:29:25.321Z,97529.06
2023-01-17T18:31:53.116Z,97533.47
2023-01-17T18:34:27.094Z,97534.19
2023-01-17T18:36:54.247Z,97548.13
2023-01-17T18:39:26.287Z,97543.94
2023-01-17T18:41:54.066Z,97554.34
2023-01-17T18:44:22.389Z,97546.69
2023-01-17T18:46:50.343Z,97550.34
2023-01-17T18:49:19.188Z,97546.16
2023-01-17T18:51:50.292Z,97561.69
2023-01-17T18:54:17.807Z,97563.44
2023-01-17T18:56:44.521Z,97563.44
2023-01-17T18:59:13.300Z,97565.19
2023-01-17T19:01:44.451Z,97562.59
2023-01-17T19:04:13.052Z,97583.31
2023-01-17T19:06:42.297Z,97577.72
2023-01-17T19:09:10.538Z,97590.44
2023-01-17T19:11:37.106Z,97573.78
2023-01-17T19:14:04.299Z,97574.41
2023-01-17T19:16:35.000Z,97577.84
2023-01-17T19:19:05.222Z,97570.97
2023-01-17T19:21:31.736Z,97569.09
2023-01-17T19:23:58.476Z,97561.28
2023-01-17T19:26:27.334Z,97568.16
2023-01-17T19:29:03.766Z,97570.75
2023-01-17T19:31:32.055Z,97579.34
2023-01-17T19:34:00.308Z,97579.34
2023-01-17T19:36:33.765Z,97588.03
2023-01-17T19:39:05.619Z,97585.44
2023-01-17T19:41:36.896Z,97574.22
2023-01-17T19:44:08.843Z,97579.38
2023-01-17T19:46:36.286Z,97586.31
2023-01-17T19:49:04.461Z,97582.00
2023-01-17T19:51:31.060Z,97575.16
2023-01-17T19:54:01.889Z,97577.63
2023-01-17T19:56:29.907Z,97581.25
2023-01-17T19:59:00.893Z,97565.97
2023-01-17T20:01:30.453Z,97581.63
2023-01-17T20:03:58.432Z,97593.78
2023-01-17T20:06:28.795Z,97590.38
2023-01-17T20:08:55.856Z,97581.78
2023-01-17T20:11:24.188Z,97589.59
2023-01-17T20:13:57.035Z,97583.63
2023-01-17T20:16:25.325Z,97573.22
2023-01-17T20:18:52.063Z,97568.78
2023-01-17T20:21:23.773Z,97567.88
2023-01-17T20:23:51.391Z,97567.00
2023-01-17T20:26:25.020Z,97557.63
2023-01-17T20:28:52.266Z,97559.34
2023-01-17T20:31:22.142Z,97548.13
2023-01-17T20:33:51.015Z,97554.13
2023-01-17T20:36:21.272Z,97552.44
2023-01-17T20:38:48.973Z,97557.56
2023-01-17T20:41:34.903Z,97561.81
2023-01-17T20:44:03.634Z,97561.22
2023-01-17T20:46:35.522Z,97559.59
2023-01-17T20:49:07.666Z,97552.56
2023-01-17T20:51:34.519Z,97556.75
2023-01-17T20:54:03.631Z,97560.09
2023-01-17T20:56:34.497Z,97554.84
2023-01-17T20:59:06.193Z,97556.34
2023-01-17T21:01:34.439Z,97554.41
2023-01-17T21:04:01.254Z,97622.09
2023-01-17T21:06:27.761Z,97629.91
2023-01-17T21:08:54.343Z,97584.53
2023-01-17T21:11:23.222Z,97548.75
2023-01-17T21:13:51.185Z,97492.72
2023-01-17T21:16:20.336Z,97467.16
2023-01-17T21:18:47.898Z,97437.28
2023-01-17T21:21:17.761Z,97415.41
2023-01-17T21:23:45.793Z,97393.66
2023-01-17T21:26:14.782Z,97390.59
2023-01-17T21:28:43.491Z,97372.78
2023-01-17T21:31:28.576Z,97387.84
2023-01-17T21:34:02.639Z,97369.84
2023-01-17T21:36:32.692Z,97372.31
2023-01-17T21:39:04.581Z,97362.91
2023-01-17T21:41:34.077Z,97366.59
2023-01-17T21:44:07.994Z,97366.53
2023-01-17T21:46:40.764Z,97366.69
2023-01-17T21:49:10.519Z,97360.09
2023-01-17T21:51:52.676Z,97378.31
2023-01-17T21:54:45.079Z,97381.19
2023-01-17T21:57:33.339Z,97371.88
2023-01-17T21:59:59.949Z,97386.09
2023-01-17T22:02:26.530Z,97377.47
2023-01-17T22:04:54.687Z,97385.44
2023-01-17T22:07:21.406Z,97383.91
2023-01-17T22:09:48.042Z,97378.63
2023-01-17T22:12:14.702Z,97393.84
2023-01-17T22:14:41.229Z,97381.06
2023-01-17T22:17:08.548Z,97401.06
2023-01-17T22:19:35.155Z,97426.72
2023-01-17T22:22:01.866Z,97415.63
2023-01-17T22:24:28.394Z,97420.09
2023-01-17T22:26:54.993Z,97420.91
2023-01-17T22:29:22.767Z,97424.34
2023-01-17T22:31:49.358Z,97434.50
2023-01-17T22:34:15.910Z,97435.44
2023-01-17T22:36:42.462Z,97439.63
2023-01-17T22:39:10.184Z,97450.41
2023-01-17T22:41:38.418Z,97452.22
2023-01-17T22:44:05.561Z,97461.50
2023-01-17T22:46:33.793Z,97460.56
2023-01-17T22:49:00.517Z,97477.63
2023-01-17T22:51:28.361Z,97478.84
2023-01-17T22:53:57.736Z,97466.00
2023-01-17T22:56:31.879Z,97477.59
2023-01-17T22:59:00.836Z,97463.75
2023-01-17T23:01:32.660Z,97445.00
2023-01-17T23:04:01.801Z,97432.81
2023-01-17T23:06:34.332Z,97402.34
2023-01-17T23:09:03.332Z,97407.13
2023-01-17T23:11:43.226Z,97395.91
2023-01-17T23:14:12.725Z,97392.91
2023-01-17T23:17:07.917Z,97378.16
2023-01-17T23:19:36.686Z,97383.13
2023-01-17T23:22:20.046Z,97391.28
2023-01-17T23:24:53.844Z,97378.88
2023-01-17T23:27:45.273Z,97383.72
2023-01-17T23:30:14.892Z,97377.09
2023-01-17T23:33:00.991Z,97386.97
2023-01-17T23:35:31.175Z,97373.34
2023-01-17T23:38:17.093Z,97364.03
2023-01-17T23:41:04.315Z,97345.25
2023-01-17T23:43:31.834Z,97343.44
2023-01-17T23:45:58.503Z,97338.44
2023-01-17T23:48:28.169Z,97328.28
2023-01-17T23:51:08.709Z,97321.78
2023-01-17T23:53:37.446Z,97320.03
2023-01-17T23:56:07.242Z,97316.63
2023-01-17T23:58:34.137Z,97318.34
